sensor_id;sensor_type;location;lat;lon;timestamp;P1;P2;P0
70249;PMS5003;57644;48.416;-123.374;2023-02-28T00:01:49;3;2;
70249;PMS5003;57644;48.416;-123.374;2023-02-28T00:04:20;4;3;
70249;PMS5003;57644;48.416;-123.374;2023-02-28T00:06:51;3;3;
70249;PMS5003;57644;48.416;-123.374;2023-02-28T00:09:21;4;3;
70249;PMS5003;57644;48.416;-123.374;2023-02-28T00:11:52;4;4;
70249;PMS5003;57644;48.416;-123.374;2023-02-28T00:14:22;3;3;
70249;PMS5003;57644;48.416;-123.374;2023-02-28T00:16:53;3;3;
70249;PMS5003;57644;48.416;-123.374;2023-02-28T00:19:24;5;5;
70249;PMS5003;57644;48.416;-123.374;2023-02-28T00:21:54;4;3;
70249;PMS5003;57644;48.416;-123.374;2023-02-28T00:24:25;3;3;
70249;PMS5003;57644;48.416;-123.374;2023-02-28T00:26:55;3;2;
70249;PMS5003;57644;48.416;-123.374;2023-02-28T00:29:26;4;4;
70249;PMS5003;57644;48.416;-123.374;2023-02-28T00:31:57;4;4;
70249;PMS5003;57644;48.416;-123.374;2023-02-28T00:34:27;5;4;
70249;PMS5003;57644;48.416;-123.374;2023-02-28T00:36:58;4;4;
70249;PMS5003;57644;48.416;-123.374;2023-02-28T00:39:28;5;4;
70249;PMS5003;57644;48.416;-123.374;2023-02-28T00:41:59;5;3;
70249;PMS5003;57644;48.416;-123.374;2023-02-28T00:44:30;6;5;
70249;PMS5003;57644;48.416;-123.374;2023-02-28T00:47:00;6;6;
70249;PMS5003;57644;48.416;-123.374;2023-02-28T00:49:31;5;5;
70249;PMS5003;57644;48.416;-123.374;2023-02-28T00:52:02;4;4;
70249;PMS5003;57644;48.416;-123.374;2023-02-28T00:54:32;6;5;
70249;PMS5003;57644;48.416;-123.374;2023-02-28T00:57:03;4;4;
70249;PMS5003;57644;48.416;-123.374;2023-02-28T00:59:33;4;4;
70249;PMS5003;57644;48.416;-123.374;2023-02-28T01:02:04;3;3;
70249;PMS5003;57644;48.416;-123.374;2023-02-28T01:04:35;4;3;
70249;PMS5003;57644;48.416;-123.374;2023-02-28T01:07:05;3;2;
70249;PMS5003;57644;48.416;-123.374;2023-02-28T01:09:36;3;3;
70249;PMS5003;57644;48.416;-123.374;2023-02-28T01:12:07;4;4;
70249;PMS5003;57644;48.416;-123.374;2023-02-28T01:14:37;2;2;
70249;PMS5003;57644;48.416;-123.374;2023-02-28T01:17:08;3;3;
70249;PMS5003;57644;48.416;-123.374;2023-02-28T01:19:38;3;3;
70249;PMS5003;57644;48.416;-123.374;2023-02-28T01:22:09;3;2;
70249;PMS5003;57644;48.416;-123.374;2023-02-28T01:24:39;3;3;
70249;PMS5003;57644;48.416;-123.374;2023-02-28T01:27:10;3;3;
70249;PMS5003;57644;48.416;-123.374;2023-02-28T01:29:41;4;4;
70249;PMS5003;57644;48.416;-123.374;2023-02-28T01:32:11;2;2;
70249;PMS5003;57644;48.416;-123.374;2023-02-28T01:34:42;2;2;
70249;PMS5003;57644;48.416;-123.374;2023-02-28T01:37:12;2;2;
70249;PMS5003;57644;48.416;-123.374;2023-02-28T01:39:44;3;2;
70249;PMS5003;57644;48.416;-123.374;2023-02-28T01:42:14;2;2;
70249;PMS5003;57644;48.416;-123.374;2023-02-28T01:47:15;2;2;
70249;PMS5003;57644;48.416;-123.374;2023-02-28T01:49:45;5;4;
70249;PMS5003;57644;48.416;-123.374;2023-02-28T01:52:16;2;2;
70249;PMS5003;57644;48.416;-123.374;2023-02-28T01:54:48;3;3;
70249;PMS5003;57644;48.416;-123.374;2023-02-28T01:57:19;4;3;
70249;PMS5003;57644;48.416;-123.374;2023-02-28T01:59:49;3;3;
70249;PMS5003;57644;48.416;-123.374;2023-02-28T02:02:20;4;4;
70249;PMS5003;57644;48.416;-123.374;2023-02-28T02:04:50;3;3;
70249;PMS5003;57644;48.416;-123.374;2023-02-28T02:07:20;8;5;
70249;PMS5003;57644;48.416;-123.374;2023-02-28T02:12:24;3;3;
70249;PMS5003;57644;48.416;-123.374;2023-02-28T02:14:55;3;3;
70249;PMS5003;57644;48.416;-123.374;2023-02-28T02:17:25;4;4;
70249;PMS5003;57644;48.416;-123.374;2023-02-28T02:22:30;5;4;
70249;PMS5003;57644;48.416;-123.374;2023-02-28T02:24:59;2;2;
70249;PMS5003;57644;48.416;-123.374;2023-02-28T02:27:29;2;2;
70249;PMS5003;57644;48.416;-123.374;2023-02-28T02:32:29;2;2;
70249;PMS5003;57644;48.416;-123.374;2023-02-28T02:34:59;4;4;
70249;PMS5003;57644;48.416;-123.374;2023-02-28T02:37:30;4;4;
70249;PMS5003;57644;48.416;-123.374;2023-02-28T02:40:00;7;6;
70249;PMS5003;57644;48.416;-123.374;2023-02-28T02:42:31;5;5;
70249;PMS5003;57644;48.416;-123.374;2023-02-28T02:45:00;4;4;
70249;PMS5003;57644;48.416;-123.374;2023-02-28T02:47:30;4;4;
70249;PMS5003;57644;48.416;-123.374;2023-02-28T02:50:02;5;5;
70249;PMS5003;57644;48.416;-123.374;2023-02-28T02:52:32;4;4;
70249;PMS5003;57644;48.416;-123.374;2023-02-28T02:55:02;4;4;
70249;PMS5003;57644;48.416;-123.374;2023-02-28T02:57:33;3;3;
70249;PMS5003;57644;48.416;-123.374;2023-02-28T03:00:04;4;4;
70249;PMS5003;57644;48.416;-123.374;2023-02-28T03:02:34;5;5;
70249;PMS5003;57644;48.416;-123.374;2023-02-28T03:05:07;3;3;
70249;PMS5003;57644;48.416;-123.374;2023-02-28T03:07:35;5;4;
70249;PMS5003;57644;48.416;-123.374;2023-02-28T03:12:39;4;3;
70249;PMS5003;57644;48.416;-123.374;2023-02-28T03:15:08;4;4;
70249;PMS5003;57644;48.416;-123.374;2023-02-28T03:17:43;6;4;
70249;PMS5003;57644;48.416;-123.374;2023-02-28T03:20:12;4;4;
70249;PMS5003;57644;48.416;-123.374;2023-02-28T03:25:12;5;5;
70249;PMS5003;57644;48.416;-123.374;2023-02-28T03:27:41;6;5;
70249;PMS5003;57644;48.416;-123.374;2023-02-28T03:30:13;5;5;
70249;PMS5003;57644;48.416;-123.374;2023-02-28T03:32:42;4;4;
70249;PMS5003;57644;48.416;-123.374;2023-02-28T03:35:14;3;3;
70249;PMS5003;57644;48.416;-123.374;2023-02-28T03:37:43;5;5;
70249;PMS5003;57644;48.416;-123.374;2023-02-28T03:40:14;6;5;
70249;PMS5003;57644;48.416;-123.374;2023-02-28T03:42:45;5;5;
70249;PMS5003;57644;48.416;-123.374;2023-02-28T03:45:16;4;4;
70249;PMS5003;57644;48.416;-123.374;2023-02-28T03:47:46;5;5;
70249;PMS5003;57644;48.416;-123.374;2023-02-28T03:50:17;5;5;
70249;PMS5003;57644;48.416;-123.374;2023-02-28T03:52:47;5;5;
70249;PMS5003;57644;48.416;-123.374;2023-02-28T03:55:17;5;5;
70249;PMS5003;57644;48.416;-123.374;2023-02-28T03:57:50;5;5;
70249;PMS5003;57644;48.416;-123.374;2023-02-28T04:00:19;5;5;
70249;PMS5003;57644;48.416;-123.374;2023-02-28T04:02:49;4;4;
70249;PMS5003;57644;48.416;-123.374;2023-02-28T04:05:20;5;5;
70249;PMS5003;57644;48.416;-123.374;2023-02-28T04:07:50;5;5;
70249;PMS5003;57644;48.416;-123.374;2023-02-28T04:10:21;6;5;
70249;PMS5003;57644;48.416;-123.374;2023-02-28T04:12:51;5;4;
70249;PMS5003;57644;48.416;-123.374;2023-02-28T04:15:22;7;7;
70249;PMS5003;57644;48.416;-123.374;2023-02-28T04:17:53;5;5;
70249;PMS5003;57644;48.416;-123.374;2023-02-28T04:20:23;7;7;
70249;PMS5003;57644;48.416;-123.374;2023-02-28T04:22:54;6;6;
70249;PMS5003;57644;48.416;-123.374;2023-02-28T04:25:25;7;7;
70249;PMS5003;57644;48.416;-123.374;2023-02-28T04:27:55;6;6;
70249;PMS5003;57644;48.416;-123.374;2023-02-28T04:30:26;5;5;
70249;PMS5003;57644;48.416;-123.374;2023-02-28T04:32:57;4;4;
70249;PMS5003;57644;48.416;-123.374;2023-02-28T04:35:27;5;5;
70249;PMS5003;57644;48.416;-123.374;2023-02-28T04:37:58;4;4;
70249;PMS5003;57644;48.416;-123.374;2023-02-28T04:40:28;6;5;
70249;PMS5003;57644;48.416;-123.374;2023-02-28T04:42:59;5;4;
70249;PMS5003;57644;48.416;-123.374;2023-02-28T04:45:30;7;5;
70249;PMS5003;57644;48.416;-123.374;2023-02-28T04:48:01;5;5;
70249;PMS5003;57644;48.416;-123.374;2023-02-28T04:50:31;5;5;
70249;PMS5003;57644;48.416;-123.374;2023-02-28T04:53:02;5;5;
70249;PMS5003;57644;48.416;-123.374;2023-02-28T04:55:32;4;4;
70249;PMS5003;57644;48.416;-123.374;2023-02-28T04:58:03;3;3;
70249;PMS5003;57644;48.416;-123.374;2023-02-28T05:00:34;3;2;
70249;PMS5003;57644;48.416;-123.374;2023-02-28T05:03:04;3;3;
70249;PMS5003;57644;48.416;-123.374;2023-02-28T05:05:35;5;4;
70249;PMS5003;57644;48.416;-123.374;2023-02-28T05:08:06;4;4;
70249;PMS5003;57644;48.416;-123.374;2023-02-28T05:10:36;3;3;
70249;PMS5003;57644;48.416;-123.374;2023-02-28T05:13:08;3;3;
70249;PMS5003;57644;48.416;-123.374;2023-02-28T05:15:38;3;3;
70249;PMS5003;57644;48.416;-123.374;2023-02-28T05:18:08;3;3;
70249;PMS5003;57644;48.416;-123.374;2023-02-28T05:20:39;3;3;
70249;PMS5003;57644;48.416;-123.374;2023-02-28T05:23:10;5;4;
70249;PMS5003;57644;48.416;-123.374;2023-02-28T05:25:40;6;6;
70249;PMS5003;57644;48.416;-123.374;2023-02-28T05:28:11;4;3;
70249;PMS5003;57644;48.416;-123.374;2023-02-28T05:30:41;3;3;
70249;PMS5003;57644;48.416;-123.374;2023-02-28T05:33:12;4;4;
70249;PMS5003;57644;48.416;-123.374;2023-02-28T05:35:43;6;5;
70249;PMS5003;57644;48.416;-123.374;2023-02-28T05:38:13;4;4;
70249;PMS5003;57644;48.416;-123.374;2023-02-28T05:40:44;3;3;
70249;PMS5003;57644;48.416;-123.374;2023-02-28T05:43:15;4;4;
70249;PMS5003;57644;48.416;-123.374;2023-02-28T05:45:45;4;4;
70249;PMS5003;57644;48.416;-123.374;2023-02-28T05:48:16;4;4;
70249;PMS5003;57644;48.416;-123.374;2023-02-28T05:50:46;3;3;
70249;PMS5003;57644;48.416;-123.374;2023-02-28T05:53:17;4;4;
70249;PMS5003;57644;48.416;-123.374;2023-02-28T05:55:47;5;4;
70249;PMS5003;57644;48.416;-123.374;2023-02-28T05:58:18;5;4;
70249;PMS5003;57644;48.416;-123.374;2023-02-28T06:00:49;3;3;
70249;PMS5003;57644;48.416;-123.374;2023-02-28T06:03:19;4;3;
70249;PMS5003;57644;48.416;-123.374;2023-02-28T06:05:51;3;3;
70249;PMS5003;57644;48.416;-123.374;2023-02-28T06:08:21;8;6;
70249;PMS5003;57644;48.416;-123.374;2023-02-28T06:10:51;3;3;
70249;PMS5003;57644;48.416;-123.374;2023-02-28T06:13:22;4;4;
70249;PMS5003;57644;48.416;-123.374;2023-02-28T06:15:53;3;3;
70249;PMS5003;57644;48.416;-123.374;2023-02-28T06:18:23;2;2;
70249;PMS5003;57644;48.416;-123.374;2023-02-28T06:20:54;2;2;
70249;PMS5003;57644;48.416;-123.374;2023-02-28T06:23:25;1;1;
70249;PMS5003;57644;48.416;-123.374;2023-02-28T06:25:55;3;2;
70249;PMS5003;57644;48.416;-123.374;2023-02-28T06:28:26;1;1;
70249;PMS5003;57644;48.416;-123.374;2023-02-28T06:30:56;3;1;
70249;PMS5003;57644;48.416;-123.374;2023-02-28T06:33:27;1;0;
70249;PMS5003;57644;48.416;-123.374;2023-02-28T06:35:58;0;0;
70249;PMS5003;57644;48.416;-123.374;2023-02-28T06:38:28;1;1;
70249;PMS5003;57644;48.416;-123.374;2023-02-28T06:40:59;1;1;
70249;PMS5003;57644;48.416;-123.374;2023-02-28T06:43:31;1;1;
70249;PMS5003;57644;48.416;-123.374;2023-02-28T06:46:01;1;1;
70249;PMS5003;57644;48.416;-123.374;2023-02-28T06:48:31;1;1;
70249;PMS5003;57644;48.416;-123.374;2023-02-28T06:51:02;0;0;
70249;PMS5003;57644;48.416;-123.374;2023-02-28T06:53:32;0;0;
70249;PMS5003;57644;48.416;-123.374;2023-02-28T06:56:04;0;0;
70249;PMS5003;57644;48.416;-123.374;2023-02-28T06:58:34;1;1;
70249;PMS5003;57644;48.416;-123.374;2023-02-28T07:01:04;0;0;
70249;PMS5003;57644;48.416;-123.374;2023-02-28T07:03:35;1;1;
70249;PMS5003;57644;48.416;-123.374;2023-02-28T07:06:06;1;1;
70249;PMS5003;57644;48.416;-123.374;2023-02-28T07:08:37;0;0;
70249;PMS5003;57644;48.416;-123.374;2023-02-28T07:11:07;1;1;
70249;PMS5003;57644;48.416;-123.374;2023-02-28T07:13:37;0;0;
70249;PMS5003;57644;48.416;-123.374;2023-02-28T07:16:09;0;0;
70249;PMS5003;57644;48.416;-123.374;2023-02-28T07:18:39;1;1;
70249;PMS5003;57644;48.416;-123.374;2023-02-28T07:21:09;0;0;
70249;PMS5003;57644;48.416;-123.374;2023-02-28T07:23:40;1;1;
70249;PMS5003;57644;48.416;-123.374;2023-02-28T07:26:12;0;0;
70249;PMS5003;57644;48.416;-123.374;2023-02-28T07:28:41;1;1;
70249;PMS5003;57644;48.416;-123.374;2023-02-28T07:31:12;0;0;
70249;PMS5003;57644;48.416;-123.374;2023-02-28T07:33:43;1;1;
70249;PMS5003;57644;48.416;-123.374;2023-02-28T07:36:14;0;0;
70249;PMS5003;57644;48.416;-123.374;2023-02-28T07:38:44;2;1;
70249;PMS5003;57644;48.416;-123.374;2023-02-28T07:41:15;1;1;
70249;PMS5003;57644;48.416;-123.374;2023-02-28T07:43:45;1;1;
70249;PMS5003;57644;48.416;-123.374;2023-02-28T07:46:16;1;1;
70249;PMS5003;57644;48.416;-123.374;2023-02-28T07:48:46;1;1;
70249;PMS5003;57644;48.416;-123.374;2023-02-28T07:51:17;1;1;
70249;PMS5003;57644;48.416;-123.374;2023-02-28T07:53:48;1;1;
70249;PMS5003;57644;48.416;-123.374;2023-02-28T07:56:18;1;1;
70249;PMS5003;57644;48.416;-123.374;2023-02-28T07:58:49;1;1;
70249;PMS5003;57644;48.416;-123.374;2023-02-28T08:01:19;2;1;
70249;PMS5003;57644;48.416;-123.374;2023-02-28T08:03:50;2;1;
70249;PMS5003;57644;48.416;-123.374;2023-02-28T08:06:22;0;0;
70249;PMS5003;57644;48.416;-123.374;2023-02-28T08:08:52;0;0;
70249;PMS5003;57644;48.416;-123.374;2023-02-28T08:11:22;1;1;
70249;PMS5003;57644;48.416;-123.374;2023-02-28T08:13:54;1;1;
70249;PMS5003;57644;48.416;-123.374;2023-02-28T08:16:23;0;0;
70249;PMS5003;57644;48.416;-123.374;2023-02-28T08:18:54;1;1;
70249;PMS5003;57644;48.416;-123.374;2023-02-28T08:21:24;1;1;
70249;PMS5003;57644;48.416;-123.374;2023-02-28T08:23:55;1;1;
70249;PMS5003;57644;48.416;-123.374;2023-02-28T08:26:26;1;1;
70249;PMS5003;57644;48.416;-123.374;2023-02-28T08:28:56;0;0;
70249;PMS5003;57644;48.416;-123.374;2023-02-28T08:31:27;1;1;
70249;PMS5003;57644;48.416;-123.374;2023-02-28T08:33:58;1;1;
70249;PMS5003;57644;48.416;-123.374;2023-02-28T08:36:28;1;1;
70249;PMS5003;57644;48.416;-123.374;2023-02-28T08:38:59;0;0;
70249;PMS5003;57644;48.416;-123.374;2023-02-28T08:41:30;1;1;
70249;PMS5003;57644;48.416;-123.374;2023-02-28T08:44:00;1;1;
70249;PMS5003;57644;48.416;-123.374;2023-02-28T08:46:31;1;0;
70249;PMS5003;57644;48.416;-123.374;2023-02-28T08:49:02;0;0;
70249;PMS5003;57644;48.416;-123.374;2023-02-28T08:51:32;0;0;
70249;PMS5003;57644;48.416;-123.374;2023-02-28T08:54:03;1;1;
70249;PMS5003;57644;48.416;-123.374;2023-02-28T08:56:33;2;2;
70249;PMS5003;57644;48.416;-123.374;2023-02-28T08:59:05;1;1;
70249;PMS5003;57644;48.416;-123.374;2023-02-28T09:01:35;2;2;
70249;PMS5003;57644;48.416;-123.374;2023-02-28T09:04:05;0;0;
70249;PMS5003;57644;48.416;-123.374;2023-02-28T09:06:36;1;0;
70249;PMS5003;57644;48.416;-123.374;2023-02-28T09:09:07;1;1;
70249;PMS5003;57644;48.416;-123.374;2023-02-28T09:11:37;0;0;
70249;PMS5003;57644;48.416;-123.374;2023-02-28T09:14:08;0;0;
70249;PMS5003;57644;48.416;-123.374;2023-02-28T09:16:38;1;1;
70249;PMS5003;57644;48.416;-123.374;2023-02-28T09:19:10;1;1;
70249;PMS5003;57644;48.416;-123.374;2023-02-28T09:21:40;0;0;
70249;PMS5003;57644;48.416;-123.374;2023-02-28T09:24:10;0;0;
70249;PMS5003;57644;48.416;-123.374;2023-02-28T09:26:41;1;1;
70249;PMS5003;57644;48.416;-123.374;2023-02-28T09:29:12;1;0;
70249;PMS5003;57644;48.416;-123.374;2023-02-28T09:31:42;0;0;
70249;PMS5003;57644;48.416;-123.374;2023-02-28T09:34:13;0;0;
70249;PMS5003;57644;48.416;-123.374;2023-02-28T09:36:44;0;0;
70249;PMS5003;57644;48.416;-123.374;2023-02-28T09:39:14;0;0;
70249;PMS5003;57644;48.416;-123.374;2023-02-28T09:41:47;0;0;
70249;PMS5003;57644;48.416;-123.374;2023-02-28T09:44:17;1;1;
70249;PMS5003;57644;48.416;-123.374;2023-02-28T09:46:46;1;1;
70249;PMS5003;57644;48.416;-123.374;2023-02-28T09:49:18;0;0;
70249;PMS5003;57644;48.416;-123.374;2023-02-28T09:51:50;1;1;
70249;PMS5003;57644;48.416;-123.374;2023-02-28T09:54:19;1;1;
70249;PMS5003;57644;48.416;-123.374;2023-02-28T09:56:50;0;0;
70249;PMS5003;57644;48.416;-123.374;2023-02-28T09:59:25;1;1;
70249;PMS5003;57644;48.416;-123.374;2023-02-28T10:01:51;0;0;
70249;PMS5003;57644;48.416;-123.374;2023-02-28T10:04:25;1;1;
70249;PMS5003;57644;48.416;-123.374;2023-02-28T10:06:52;0;0;
70249;PMS5003;57644;48.416;-123.374;2023-02-28T10:09:23;0;0;
70249;PMS5003;57644;48.416;-123.374;2023-02-28T10:11:54;0;0;
70249;PMS5003;57644;48.416;-123.374;2023-02-28T10:14:24;1;1;
70249;PMS5003;57644;48.416;-123.374;2023-02-28T10:16:55;0;0;
70249;PMS5003;57644;48.416;-123.374;2023-02-28T10:19:25;1;0;
70249;PMS5003;57644;48.416;-123.374;2023-02-28T10:21:57;0;0;
70249;PMS5003;57644;48.416;-123.374;2023-02-28T10:24:27;0;0;
70249;PMS5003;57644;48.416;-123.374;2023-02-28T10:26:59;1;1;
70249;PMS5003;57644;48.416;-123.374;2023-02-28T10:29:27;1;0;
70249;PMS5003;57644;48.416;-123.374;2023-02-28T10:31:58;1;1;
70249;PMS5003;57644;48.416;-123.374;2023-02-28T10:34:29;0;0;
70249;PMS5003;57644;48.416;-123.374;2023-02-28T10:36:59;0;0;
70249;PMS5003;57644;48.416;-123.374;2023-02-28T10:42:00;0;0;
70249;PMS5003;57644;48.416;-123.374;2023-02-28T10:44:31;0;0;
70249;PMS5003;57644;48.416;-123.374;2023-02-28T10:47:02;0;0;
70249;PMS5003;57644;48.416;-123.374;2023-02-28T10:49:32;0;0;
70249;PMS5003;57644;48.416;-123.374;2023-02-28T10:52:03;0;0;
70249;PMS5003;57644;48.416;-123.374;2023-02-28T10:54:35;2;1;
70249;PMS5003;57644;48.416;-123.374;2023-02-28T10:57:07;0;0;
70249;PMS5003;57644;48.416;-123.374;2023-02-28T10:59:35;0;0;
70249;PMS5003;57644;48.416;-123.374;2023-02-28T11:04:36;1;1;
70249;PMS5003;57644;48.416;-123.374;2023-02-28T11:09:38;0;0;
70249;PMS5003;57644;48.416;-123.374;2023-02-28T11:12:20;2;1;
70249;PMS5003;57644;48.416;-123.374;2023-02-28T11:14:40;2;1;
70249;PMS5003;57644;48.416;-123.374;2023-02-28T11:17:14;0;0;
70249;PMS5003;57644;48.416;-123.374;2023-02-28T11:19:44;0;0;
70249;PMS5003;57644;48.416;-123.374;2023-02-28T11:22:11;0;0;
70249;PMS5003;57644;48.416;-123.374;2023-02-28T11:24:43;0;0;
70249;PMS5003;57644;48.416;-123.374;2023-02-28T11:29:46;1;0;
70249;PMS5003;57644;48.416;-123.374;2023-02-28T11:32:15;1;1;
70249;PMS5003;57644;48.416;-123.374;2023-02-28T11:34:44;0;0;
70249;PMS5003;57644;48.416;-123.374;2023-02-28T11:37:16;0;0;
70249;PMS5003;57644;48.416;-123.374;2023-02-28T11:39:45;0;0;
70249;PMS5003;57644;48.416;-123.374;2023-02-28T11:42:22;0;0;
70249;PMS5003;57644;48.416;-123.374;2023-02-28T11:44:52;0;0;
70249;PMS5003;57644;48.416;-123.374;2023-02-28T11:47:19;1;1;
70249;PMS5003;57644;48.416;-123.374;2023-02-28T11:50:03;1;0;
70249;PMS5003;57644;48.416;-123.374;2023-02-28T11:52:20;1;1;
70249;PMS5003;57644;48.416;-123.374;2023-02-28T11:54:53;0;0;
70249;PMS5003;57644;48.416;-123.374;2023-02-28T11:57:24;1;1;
70249;PMS5003;57644;48.416;-123.374;2023-02-28T11:59:53;1;1;
70249;PMS5003;57644;48.416;-123.374;2023-02-28T12:02:23;1;1;
70249;PMS5003;57644;48.416;-123.374;2023-02-28T12:04:56;1;1;
70249;PMS5003;57644;48.416;-123.374;2023-02-28T12:07:25;1;1;
70249;PMS5003;57644;48.416;-123.374;2023-02-28T12:09:55;0;0;
70249;PMS5003;57644;48.416;-123.374;2023-02-28T12:12:27;0;0;
70249;PMS5003;57644;48.416;-123.374;2023-02-28T12:14:59;1;1;
70249;PMS5003;57644;48.416;-123.374;2023-02-28T12:17:29;0;0;
70249;PMS5003;57644;48.416;-123.374;2023-02-28T12:19:58;0;0;
70249;PMS5003;57644;48.416;-123.374;2023-02-28T12:22:28;1;1;
70249;PMS5003;57644;48.416;-123.374;2023-02-28T12:25:02;0;0;
70249;PMS5003;57644;48.416;-123.374;2023-02-28T12:27:28;0;0;
70249;PMS5003;57644;48.416;-123.374;2023-02-28T12:30:00;0;0;
70249;PMS5003;57644;48.416;-123.374;2023-02-28T12:32:30;0;0;
70249;PMS5003;57644;48.416;-123.374;2023-02-28T12:35:01;0;0;
70249;PMS5003;57644;48.416;-123.374;2023-02-28T12:37:31;0;0;
70249;PMS5003;57644;48.416;-123.374;2023-02-28T12:40:02;0;0;
70249;PMS5003;57644;48.416;-123.374;2023-02-28T12:42:32;0;0;
70249;PMS5003;57644;48.416;-123.374;2023-02-28T12:45:04;0;0;
70249;PMS5003;57644;48.416;-123.374;2023-02-28T12:47:33;0;0;
70249;PMS5003;57644;48.416;-123.374;2023-02-28T12:50:05;0;0;
70249;PMS5003;57644;48.416;-123.374;2023-02-28T12:52:37;1;1;
70249;PMS5003;57644;48.416;-123.374;2023-02-28T12:55:06;0;0;
70249;PMS5003;57644;48.416;-123.374;2023-02-28T12:57:36;1;0;
70249;PMS5003;57644;48.416;-123.374;2023-02-28T13:00:10;1;1;
70249;PMS5003;57644;48.416;-123.374;2023-02-28T13:05:11;1;1;
70249;PMS5003;57644;48.416;-123.374;2023-02-28T13:07:45;0;0;
70249;PMS5003;57644;48.416;-123.374;2023-02-28T13:10:09;0;0;
70249;PMS5003;57644;48.416;-123.374;2023-02-28T13:12:42;0;0;
70249;PMS5003;57644;48.416;-123.374;2023-02-28T13:15:16;0;0;
70249;PMS5003;57644;48.416;-123.374;2023-02-28T13:17:41;1;1;
70249;PMS5003;57644;48.416;-123.374;2023-02-28T13:20:16;0;0;
70249;PMS5003;57644;48.416;-123.374;2023-02-28T13:22:43;0;0;
70249;PMS5003;57644;48.416;-123.374;2023-02-28T13:27:43;0;0;
70249;PMS5003;57644;48.416;-123.374;2023-02-28T13:32:45;0;0;
70249;PMS5003;57644;48.416;-123.374;2023-02-28T13:37:47;1;1;
70249;PMS5003;57644;48.416;-123.374;2023-02-28T13:42:48;0;0;
70249;PMS5003;57644;48.416;-123.374;2023-02-28T13:45:23;0;0;
70249;PMS5003;57644;48.416;-123.374;2023-02-28T13:47:51;0;0;
70249;PMS5003;57644;48.416;-123.374;2023-02-28T13:50:21;0;0;
70249;PMS5003;57644;48.416;-123.374;2023-02-28T13:52:53;11;10;
70249;PMS5003;57644;48.416;-123.374;2023-02-28T13:55:24;5;5;
70249;PMS5003;57644;48.416;-123.374;2023-02-28T13:57:58;1;1;
70249;PMS5003;57644;48.416;-123.374;2023-02-28T14:00:27;1;1;
70249;PMS5003;57644;48.416;-123.374;2023-02-28T14:02:59;0;0;
70249;PMS5003;57644;48.416;-123.374;2023-02-28T14:05:23;0;0;
70249;PMS5003;57644;48.416;-123.374;2023-02-28T14:07:55;0;0;
70249;PMS5003;57644;48.416;-123.374;2023-02-28T14:10:26;1;1;
70249;PMS5003;57644;48.416;-123.374;2023-02-28T14:12:58;0;0;
70249;PMS5003;57644;48.416;-123.374;2023-02-28T14:15:30;0;0;
70249;PMS5003;57644;48.416;-123.374;2023-02-28T14:17:57;0;0;
70249;PMS5003;57644;48.416;-123.374;2023-02-28T14:20:29;0;0;
70249;PMS5003;57644;48.416;-123.374;2023-02-28T14:23:00;0;0;
70249;PMS5003;57644;48.416;-123.374;2023-02-28T14:25:31;0;0;
70249;PMS5003;57644;48.416;-123.374;2023-02-28T14:28:03;0;0;
70249;PMS5003;57644;48.416;-123.374;2023-02-28T14:33:04;0;0;
70249;PMS5003;57644;48.416;-123.374;2023-02-28T14:38:03;0;0;
70249;PMS5003;57644;48.416;-123.374;2023-02-28T14:40:33;0;0;
70249;PMS5003;57644;48.416;-123.374;2023-02-28T14:43:04;1;0;
70249;PMS5003;57644;48.416;-123.374;2023-02-28T14:45:35;0;0;
70249;PMS5003;57644;48.416;-123.374;2023-02-28T14:48:05;0;0;
70249;PMS5003;57644;48.416;-123.374;2023-02-28T14:50:36;0;0;
70249;PMS5003;57644;48.416;-123.374;2023-02-28T14:53:10;0;0;
70249;PMS5003;57644;48.416;-123.374;2023-02-28T14:55:37;0;0;
70249;PMS5003;57644;48.416;-123.374;2023-02-28T15:00:46;0;0;
70249;PMS5003;57644;48.416;-123.374;2023-02-28T15:05:39;0;0;
70249;PMS5003;57644;48.416;-123.374;2023-02-28T15:08:12;0;0;
70249;PMS5003;57644;48.416;-123.374;2023-02-28T15:10:41;0;0;
70249;PMS5003;57644;48.416;-123.374;2023-02-28T15:13:12;0;0;
70249;PMS5003;57644;48.416;-123.374;2023-02-28T15:15:43;0;0;
70249;PMS5003;57644;48.416;-123.374;2023-02-28T15:18:15;0;0;
70249;PMS5003;57644;48.416;-123.374;2023-02-28T15:20:43;0;0;
70249;PMS5003;57644;48.416;-123.374;2023-02-28T15:23:14;0;0;
70249;PMS5003;57644;48.416;-123.374;2023-02-28T15:25:44;0;0;
70249;PMS5003;57644;48.416;-123.374;2023-02-28T15:28:16;0;0;
70249;PMS5003;57644;48.416;-123.374;2023-02-28T15:33:19;0;0;
70249;PMS5003;57644;48.416;-123.374;2023-02-28T15:35:47;0;0;
70249;PMS5003;57644;48.416;-123.374;2023-02-28T15:38:21;0;0;
70249;PMS5003;57644;48.416;-123.374;2023-02-28T15:40:50;0;0;
70249;PMS5003;57644;48.416;-123.374;2023-02-28T15:43:23;1;1;
70249;PMS5003;57644;48.416;-123.374;2023-02-28T15:45:50;0;0;
70249;PMS5003;57644;48.416;-123.374;2023-02-28T15:48:22;0;0;
70249;PMS5003;57644;48.416;-123.374;2023-02-28T15:50:52;0;0;
70249;PMS5003;57644;48.416;-123.374;2023-02-28T15:53:22;0;0;
70249;PMS5003;57644;48.416;-123.374;2023-02-28T15:55:53;0;0;
70249;PMS5003;57644;48.416;-123.374;2023-02-28T15:58:23;0;0;
70249;PMS5003;57644;48.416;-123.374;2023-02-28T16:03:25;0;0;
70249;PMS5003;57644;48.416;-123.374;2023-02-28T16:08:26;0;0;
70249;PMS5003;57644;48.416;-123.374;2023-02-28T16:10:56;1;0;
70249;PMS5003;57644;48.416;-123.374;2023-02-28T16:13:27;0;0;
70249;PMS5003;57644;48.416;-123.374;2023-02-28T16:15:57;0;0;
70249;PMS5003;57644;48.416;-123.374;2023-02-28T16:18:28;0;0;
70249;PMS5003;57644;48.416;-123.374;2023-02-28T16:20:59;0;0;
70249;PMS5003;57644;48.416;-123.374;2023-02-28T16:23:29;0;0;
70249;PMS5003;57644;48.416;-123.374;2023-02-28T16:26:00;1;1;
70249;PMS5003;57644;48.416;-123.374;2023-02-28T16:28:31;0;0;
70249;PMS5003;57644;48.416;-123.374;2023-02-28T16:31:02;1;1;
70249;PMS5003;57644;48.416;-123.374;2023-02-28T16:33:32;0;0;
70249;PMS5003;57644;48.416;-123.374;2023-02-28T16:36:03;0;0;
70249;PMS5003;57644;48.416;-123.374;2023-02-28T16:38:33;0;0;
70249;PMS5003;57644;48.416;-123.374;2023-02-28T16:41:04;0;0;
70249;PMS5003;57644;48.416;-123.374;2023-02-28T16:43:34;0;0;
70249;PMS5003;57644;48.416;-123.374;2023-02-28T16:46:05;0;0;
70249;PMS5003;57644;48.416;-123.374;2023-02-28T16:48:35;0;0;
70249;PMS5003;57644;48.416;-123.374;2023-02-28T16:51:07;0;0;
70249;PMS5003;57644;48.416;-123.374;2023-02-28T16:53:37;2;1;
70249;PMS5003;57644;48.416;-123.374;2023-02-28T16:56:11;1;1;
70249;PMS5003;57644;48.416;-123.374;2023-02-28T16:58:38;1;1;
70249;PMS5003;57644;48.416;-123.374;2023-02-28T17:01:09;0;0;
70249;PMS5003;57644;48.416;-123.374;2023-02-28T17:03:39;1;1;
70249;PMS5003;57644;48.416;-123.374;2023-02-28T17:06:16;0;0;
70249;PMS5003;57644;48.416;-123.374;2023-02-28T17:08:41;0;0;
70249;PMS5003;57644;48.416;-123.374;2023-02-28T17:11:11;1;1;
70249;PMS5003;57644;48.416;-123.374;2023-02-28T17:13:42;1;0;
70249;PMS5003;57644;48.416;-123.374;2023-02-28T17:16:15;0;0;
70249;PMS5003;57644;48.416;-123.374;2023-02-28T17:18:43;0;0;